Time;durP1;ratioP1;P1;durP2;ratioP2;P2;SDS_P1;SDS_P2;PMS_P1;PMS_P2;Temp;Humidity;BMP_temperature;BMP_pressure;BME280_temperature;BME280_humidity;BME280_pressure;Samples;Min_cycle;Max_cycle;Signal;HPM_P1;HPM_P2
2023/03/05 00:00:07;;;;;;;11.68;2.25;;;4.80;99.90;;;;;;5092970;28;20127;-76
2023/03/05 00:02:33;;;;;;;8.90;1.85;;;4.80;99.90;;;;;;5093001;28;20131;-76
2023/03/05 00:04:59;;;;;;;8.73;1.80;;;4.80;99.90;;;;;;5092970;28;20144;-76
2023/03/05 00:07:24;;;;;;;9.80;1.90;;;4.80;99.90;;;;;;5091735;28;20044;-78
2023/03/05 00:09:50;;;;;;;8.37;1.53;;;4.80;99.90;;;;;;5074570;28;20175;-76
2023/03/05 00:12:16;;;;;;;9.90;1.97;;;4.70;99.90;;;;;;5093132;28;20097;-76
2023/03/05 00:14:42;;;;;;;9.80;2.03;;;4.80;99.90;;;;;;5095017;28;20384;-76
2023/03/05 00:17:07;;;;;;;8.50;1.80;;;4.70;99.90;;;;;;5096631;28;20056;-77
2023/03/05 00:19:33;;;;;;;9.53;2.47;;;4.80;99.90;;;;;;5097023;28;20444;-76
2023/03/05 00:21:59;;;;;;;8.73;1.70;;;4.80;99.90;;;;;;5096307;28;20098;-78
2023/03/05 00:24:24;;;;;;;9.07;1.97;;;4.90;99.90;;;;;;5096452;28;20441;-76
2023/03/05 00:26:50;;;;;;;9.73;1.40;;;4.90;99.90;;;;;;5095378;28;20048;-77
2023/03/05 00:29:20;;;;;;;11.67;1.60;;;4.90;99.90;;;;;;5096301;28;20471;-77
2023/03/05 00:31:46;;;;;;;6.30;1.23;;;4.90;99.90;;;;;;5095082;28;20173;-77
2023/03/05 00:34:15;;;;;;;7.85;1.50;;;4.90;99.90;;;;;;5096945;28;20130;-77
2023/03/05 00:36:47;;;;;;;6.82;1.40;;;4.90;99.90;;;;;;5095844;28;20052;-76
2023/03/05 00:39:16;;;;;;;6.90;1.67;;;4.90;99.90;;;;;;5095952;28;20396;-76
2023/03/05 00:41:42;;;;;;;5.78;1.20;;;4.90;99.90;;;;;;5096104;28;20503;-76
2023/03/05 00:44:08;;;;;;;7.27;1.40;;;4.90;99.90;;;;;;5095400;28;20105;-76
2023/03/05 00:46:34;;;;;;;6.03;1.17;;;4.90;99.90;;;;;;5094786;28;20051;-76
2023/03/05 00:49:00;;;;;;;9.90;1.67;;;4.90;99.90;;;;;;5096477;28;20582;-76
2023/03/05 00:51:26;;;;;;;5.97;1.07;;;4.90;99.90;;;;;;5077812;28;20083;-76
2023/03/05 00:53:52;;;;;;;7.97;1.25;;;4.90;99.90;;;;;;5078273;28;20123;-76
2023/03/05 00:56:17;;;;;;;5.77;1.80;;;4.90;99.90;;;;;;5095668;28;20170;-76
2023/03/05 00:58:43;;;;;;;5.87;1.20;;;4.80;99.90;;;;;;5095568;28;20051;-76
2023/03/05 01:01:09;;;;;;;6.67;1.27;;;4.80;99.90;;;;;;5095438;28;20055;-76
2023/03/05 01:03:36;;;;;;;7.40;1.27;;;4.70;99.90;;;;;;5094533;28;20056;-77
2023/03/05 01:06:07;;;;;;;7.50;1.15;;;4.70;99.90;;;;;;5095693;28;20051;-76
2023/03/05 01:08:34;;;;;;;9.07;1.30;;;4.70;99.90;;;;;;5095894;28;20051;-76
2023/03/05 01:11:00;;;;;;;10.38;2.17;;;4.60;99.90;;;;;;5094408;28;20036;-76
2023/03/05 01:13:26;;;;;;;6.90;1.60;;;4.60;99.90;;;;;;5096286;28;20349;-76
2023/03/05 01:15:52;;;;;;;9.53;2.37;;;4.60;99.90;;;;;;5094237;28;20036;-77
2023/03/05 01:18:18;;;;;;;11.83;3.20;;;4.60;99.90;;;;;;5094187;28;20040;-76
2023/03/05 01:20:44;;;;;;;7.35;1.75;;;4.50;99.90;;;;;;5094397;28;20206;-77
2023/03/05 01:23:10;;;;;;;6.13;1.50;;;4.50;99.90;;;;;;5094187;28;20151;-77
2023/03/05 01:25:36;;;;;;;9.67;2.17;;;4.50;99.90;;;;;;5095940;28;20394;-77
2023/03/05 01:28:02;;;;;;;11.75;2.00;;;4.40;99.90;;;;;;5095959;28;20281;-77
2023/03/05 01:30:28;;;;;;;10.60;1.92;;;4.50;99.90;;;;;;5095643;28;20082;-76
2023/03/05 01:32:55;;;;;;;9.77;1.60;;;4.50;99.90;;;;;;5095148;28;20048;-77
2023/03/05 01:35:24;;;;;;;7.65;1.67;;;4.50;99.90;;;;;;5095484;28;20476;-76
2023/03/05 01:37:50;;;;;;;8.82;1.60;;;4.50;99.90;;;;;;5076439;28;20056;-76
2023/03/05 01:40:18;;;;;;;5.13;1.10;;;4.50;99.90;;;;;;5093744;28;20056;-76
2023/03/05 01:42:53;;;;;;;8.48;1.88;;;4.40;99.90;;;;;;5094736;28;20051;-75
2023/03/05 01:45:19;;;;;;;;;;;4.40;99.90;;;;;;5094315;28;20052;-76
2023/03/05 01:47:45;;;;;;;3.87;1.27;;;4.40;99.90;;;;;;5093888;28;19969;-76
2023/03/05 01:50:16;;;;;;;5.73;1.40;;;4.30;99.90;;;;;;5095199;28;20476;-77
2023/03/05 01:52:48;;;;;;;8.23;2.25;;;4.30;99.90;;;;;;5095316;28;20392;-76
2023/03/05 01:55:18;;;;;;;5.78;1.45;;;4.30;99.90;;;;;;5093485;28;20052;-76
2023/03/05 01:57:48;;;;;;;5.65;1.50;;;4.30;99.90;;;;;;5095171;28;20063;-76
2023/03/05 02:00:21;;;;;;;5.13;1.23;;;4.40;99.90;;;;;;5094004;28;20063;-76
2023/03/05 02:02:49;;;;;;;6.05;1.60;;;4.40;99.90;;;;;;5094651;28;20048;-76
2023/03/05 02:05:25;;;;;;;4.88;1.33;;;4.40;99.90;;;;;;5093263;28;20055;-76
2023/03/05 02:08:00;;;;;;;12.20;1.95;;;4.40;99.90;;;;;;5095135;28;20403;-76
2023/03/05 02:10:33;;;;;;;8.43;1.30;;;4.40;99.90;;;;;;5095047;28;20043;-76
2023/03/05 02:13:06;;;;;;;8.93;1.23;;;4.40;99.90;;;;;;5093768;28;20060;-76
2023/03/05 02:15:33;;;;;;;6.00;1.30;;;4.40;99.90;;;;;;5093416;28;20059;-76
2023/03/05 02:18:00;;;;;;;7.80;1.45;;;4.50;99.90;;;;;;5094240;28;20193;-76
2023/03/05 02:20:28;;;;;;;6.90;1.60;;;4.50;99.90;;;;;;5094155;28;20071;-76
2023/03/05 02:22:54;;;;;;;6.57;1.20;;;4.50;99.90;;;;;;5094687;28;20052;-76
2023/03/05 02:25:26;;;;;;;10.37;1.70;;;4.50;99.90;;;;;;5077055;28;20109;-76
2023/03/05 02:28:01;;;;;;;7.10;2.33;;;4.50;99.90;;;;;;5093415;28;20059;-76
2023/03/05 02:30:27;;;;;;;7.30;1.60;;;4.50;99.90;;;;;;5092549;28;20449;-76
2023/03/05 02:32:53;;;;;;;6.53;1.23;;;4.50;99.90;;;;;;5093820;28;20044;-76
2023/03/05 02:35:18;;;;;;;8.83;1.30;;;4.50;99.90;;;;;;5093868;28;20381;-76
2023/03/05 02:37:44;;;;;;;6.87;1.13;;;4.50;99.90;;;;;;5094517;28;20511;-76
2023/03/05 02:40:12;;;;;;;5.40;1.40;;;4.50;99.90;;;;;;5075766;28;20048;-76
2023/03/05 02:42:38;;;;;;;7.10;2.13;;;4.50;99.90;;;;;;5093664;28;20052;-76
2023/03/05 02:45:04;;;;;;;6.72;0.95;;;4.40;99.90;;;;;;5093804;28;20105;-76
2023/03/05 02:47:30;;;;;;;12.85;1.42;;;4.40;99.90;;;;;;5093753;28;20128;-76
2023/03/05 02:49:56;;;;;;;7.40;1.57;;;4.40;99.90;;;;;;5093695;28;20462;-76
2023/03/05 02:52:22;;;;;;;6.25;1.42;;;4.50;99.90;;;;;;5093750;28;20124;-76
2023/03/05 02:54:49;;;;;;;4.00;0.97;;;4.40;99.90;;;;;;5092510;28;20426;-76
2023/03/05 02:57:15;;;;;;;6.20;1.10;;;4.40;99.90;;;;;;5093586;28;20096;-76
2023/03/05 02:59:41;;;;;;;9.77;1.10;;;4.40;99.90;;;;;;5093611;28;20048;-76
2023/03/05 03:02:06;;;;;;;3.77;1.00;;;4.40;99.90;;;;;;5093588;28;20502;-76
2023/03/05 03:04:32;;;;;;;5.93;1.30;;;4.30;99.90;;;;;;5092543;28;20048;-77
2023/03/05 03:06:58;;;;;;;3.47;1.67;;;4.40;99.90;;;;;;5092374;28;20369;-76
2023/03/05 03:09:25;;;;;;;5.83;1.00;;;4.40;99.90;;;;;;5092259;28;20044;-76
2023/03/05 03:11:52;;;;;;;6.13;1.10;;;4.40;99.90;;;;;;5093469;28;20063;-76
2023/03/05 03:14:18;;;;;;;5.00;1.50;;;4.40;99.90;;;;;;5093391;28;20048;-76
2023/03/05 03:16:43;;;;;;;5.27;1.00;;;4.40;99.90;;;;;;5093428;28;20044;-76
2023/03/05 03:19:09;;;;;;;5.67;1.30;;;4.40;99.90;;;;;;5093950;28;20066;-76
2023/03/05 03:21:35;;;;;;;2.03;0.70;;;4.40;99.90;;;;;;5093442;28;20052;-75
2023/03/05 03:24:00;;;;;;;6.07;1.00;;;4.40;99.90;;;;;;5093600;28;20446;-75
2023/03/05 03:26:26;;;;;;;7.07;1.20;;;4.40;99.90;;;;;;5093324;28;20101;-75
2023/03/05 03:28:53;;;;;;;6.27;0.90;;;4.40;99.90;;;;;;5094125;28;20040;-75
2023/03/05 03:31:19;;;;;;;5.85;0.90;;;4.30;99.90;;;;;;5093322;28;20067;-75
2023/03/05 03:33:44;;;;;;;6.10;1.00;;;4.30;99.90;;;;;;5093848;28;20460;-75
2023/03/05 03:36:10;;;;;;;5.33;1.00;;;4.30;99.90;;;;;;5075015;28;20134;-75
2023/03/05 03:38:36;;;;;;;5.60;1.00;;;4.30;99.90;;;;;;5093559;28;20063;-76
2023/03/05 03:41:05;;;;;;;5.80;1.20;;;4.30;99.90;;;;;;5076302;28;20354;-75
2023/03/05 03:43:31;;;;;;;6.18;1.00;;;4.30;99.90;;;;;;5093443;28;20392;-75
2023/03/05 03:45:57;;;;;;;5.97;1.00;;;4.30;99.90;;;;;;5092088;28;20040;-75
2023/03/05 03:48:22;;;;;;;6.97;1.10;;;4.30;99.90;;;;;;5075620;28;20130;-76
2023/03/05 03:50:48;;;;;;;6.70;1.40;;;4.30;99.90;;;;;;5096564;28;20496;-76
2023/03/05 03:53:15;;;;;;;7.63;1.63;;;4.30;99.90;;;;;;5096722;28;20048;-76
2023/03/05 03:55:41;;;;;;;6.47;1.38;;;4.30;99.90;;;;;;5096895;28;20044;-75
2023/03/05 03:58:08;;;;;;;6.25;1.15;;;4.30;99.90;;;;;;5097394;28;20051;-75
2023/03/05 04:00:34;;;;;;;3.30;1.10;;;4.30;99.90;;;;;;5097634;28;20074;-75
2023/03/05 04:03:00;;;;;;;4.95;1.00;;;4.30;99.90;;;;;;5095622;28;20109;-75
2023/03/05 04:05:25;;;;;;;6.37;1.30;;;4.30;99.90;;;;;;5096472;28;20048;-76
2023/03/05 04:07:51;;;;;;;5.70;1.07;;;4.30;99.90;;;;;;5096744;28;20441;-76
2023/03/05 04:10:17;;;;;;;5.00;1.00;;;4.30;99.90;;;;;;5097230;28;20079;-75
2023/03/05 04:12:44;;;;;;;4.23;1.00;;;4.30;99.90;;;;;;5096588;28;20142;-76
2023/03/05 04:15:11;;;;;;;7.65;1.27;;;4.30;99.90;;;;;;5096601;28;20047;-76
2023/03/05 04:17:37;;;;;;;7.53;1.30;;;4.40;99.90;;;;;;5095332;28;20052;-75
2023/03/05 04:20:04;;;;;;;4.53;0.97;;;4.30;99.90;;;;;;5097078;28;20109;-75
2023/03/05 04:22:30;;;;;;;6.03;1.10;;;4.40;99.90;;;;;;5096217;28;20499;-75
2023/03/05 04:24:56;;;;;;;3.90;0.90;;;4.40;99.90;;;;;;5097144;28;20073;-75
2023/03/05 04:27:21;;;;;;;5.60;1.10;;;4.30;99.90;;;;;;5078530;28;20498;-75
2023/03/05 04:29:47;;;;;;;6.40;1.23;;;4.30;99.90;;;;;;5094727;28;20040;-75
2023/03/05 04:32:13;;;;;;;5.33;1.00;;;4.40;99.90;;;;;;5096299;28;20040;-75
2023/03/05 04:34:39;;;;;;;5.87;1.10;;;4.40;99.90;;;;;;5096959;28;20044;-75
2023/03/05 04:37:04;;;;;;;8.17;1.30;;;4.40;99.90;;;;;;5096045;28;20389;-75
2023/03/05 04:39:30;;;;;;;6.17;1.27;;;4.40;99.90;;;;;;5096727;28;20130;-76
2023/03/05 04:41:56;;;;;;;5.50;1.20;;;4.40;99.90;;;;;;5096658;28;20425;-75
2023/03/05 04:44:24;;;;;;;4.60;1.10;;;4.40;99.90;;;;;;5094949;28;20040;-75
2023/03/05 04:46:49;;;;;;;7.30;1.27;;;4.50;99.90;;;;;;5095197;28;20468;-75
2023/03/05 04:49:15;;;;;;;9.20;1.47;;;4.50;99.90;;;;;;5096767;28;20058;-75
2023/03/05 04:51:41;;;;;;;6.70;1.87;;;4.40;99.90;;;;;;5095193;28;20036;-75
2023/03/05 04:54:07;;;;;;;8.30;1.37;;;4.40;99.90;;;;;;5094595;28;20110;-75
2023/03/05 04:56:33;;;;;;;8.27;1.30;;;4.40;99.90;;;;;;5094571;28;20059;-75
2023/03/05 04:58:59;;;;;;;6.35;1.30;;;4.40;99.90;;;;;;5095973;28;20051;-75
2023/03/05 05:01:25;;;;;;;6.97;1.25;;;4.40;99.90;;;;;;5095370;28;20100;-75
2023/03/05 05:03:51;;;;;;;8.60;1.40;;;4.40;99.90;;;;;;5094466;28;20135;-75
2023/03/05 05:06:16;;;;;;;8.27;1.23;;;4.30;99.90;;;;;;5095547;28;20044;-75
2023/03/05 05:08:42;;;;;;;7.37;1.40;;;4.40;99.90;;;;;;5095559;28;20044;-75
2023/03/05 05:11:13;;;;;;;7.97;1.10;;;4.30;99.90;;;;;;5094802;28;20040;-75
2023/03/05 05:13:38;;;;;;;5.18;1.08;;;4.30;99.90;;;;;;5095529;28;20109;-75
2023/03/05 05:16:08;;;;;;;8.83;1.37;;;4.40;99.90;;;;;;5095690;28;20057;-76
2023/03/05 05:18:34;;;;;;;6.70;1.90;;;4.40;99.90;;;;;;5095921;28;20051;-76
2023/03/05 05:21:00;;;;;;;7.40;1.20;;;4.40;99.90;;;;;;5095836;28;20130;-75
2023/03/05 05:23:26;;;;;;;5.87;1.27;;;4.30;99.90;;;;;;5095280;28;20122;-75
2023/03/05 05:26:00;;;;;;;4.57;1.45;;;4.30;99.90;;;;;;5094859;28;20537;-75
2023/03/05 05:28:26;;;;;;;4.47;0.77;;;4.40;99.90;;;;;;5094930;28;20559;-75
2023/03/05 05:30:52;;;;;;;9.20;1.20;;;4.40;99.90;;;;;;5095143;28;20040;-75
2023/03/05 05:33:18;;;;;;;5.43;1.30;;;4.30;99.90;;;;;;5095419;28;20480;-75
2023/03/05 05:35:44;;;;;;;10.47;2.67;;;4.30;99.90;;;;;;5094722;28;20050;-75
2023/03/05 05:38:09;;;;;;;5.87;1.23;;;4.30;99.90;;;;;;5095500;28;20274;-75
2023/03/05 05:40:35;;;;;;;6.53;1.00;;;4.20;99.90;;;;;;5095015;28;20113;-75
2023/03/05 05:43:01;;;;;;;5.50;1.00;;;4.30;99.90;;;;;;5094916;28;20476;-75
2023/03/05 05:45:27;;;;;;;5.10;1.33;;;4.30;99.90;;;;;;5093854;28;20496;-75
2023/03/05 05:47:52;;;;;;;5.00;1.23;;;4.20;99.90;;;;;;5094730;28;20044;-75
2023/03/05 05:50:19;;;;;;;5.03;1.20;;;4.20;99.90;;;;;;5094380;28;20048;-75
2023/03/05 05:52:45;;;;;;;4.85;1.35;;;4.20;99.90;;;;;;5094754;28;20510;-75
2023/03/05 05:55:11;;;;;;;7.37;1.20;;;4.20;99.90;;;;;;5094678;28;20084;-75
2023/03/05 05:57:38;;;;;;;3.92;1.00;;;4.20;99.90;;;;;;5095171;28;20360;-75
2023/03/05 06:00:06;;;;;;;7.28;1.15;;;4.20;99.90;;;;;;5094870;28;20052;-75
2023/03/05 06:02:32;;;;;;;4.00;1.10;;;4.20;99.90;;;;;;5094608;28;20093;-75
2023/03/05 06:04:58;;;;;;;6.20;1.40;;;4.20;99.90;;;;;;5095294;28;20141;-75
2023/03/05 06:07:23;;;;;;;5.93;1.33;;;4.10;99.90;;;;;;5093317;28;20568;-75
2023/03/05 06:09:49;;;;;;;5.60;1.00;;;4.10;99.90;;;;;;5094751;28;20043;-75
2023/03/05 06:12:15;;;;;;;7.77;1.40;;;4.10;99.90;;;;;;5094053;28;20066;-75
2023/03/05 06:14:41;;;;;;;7.67;1.30;;;4.10;99.90;;;;;;5093108;28;20139;-75
2023/03/05 06:17:06;;;;;;;3.97;1.10;;;4.10;99.90;;;;;;5093146;28;20048;-75
2023/03/05 06:19:32;;;;;;;6.33;1.80;;;4.00;99.90;;;;;;5094753;28;20075;-75
2023/03/05 06:21:58;;;;;;;6.03;1.00;;;4.00;99.90;;;;;;5094089;28;20391;-75
2023/03/05 06:24:23;;;;;;;5.10;1.43;;;4.00;99.90;;;;;;5094071;28;20043;-75
2023/03/05 06:26:49;;;;;;;7.07;1.30;;;4.00;99.90;;;;;;5093197;28;20044;-75
2023/03/05 06:29:15;;;;;;;8.63;2.03;;;3.90;99.90;;;;;;5094094;28;20443;-76
2023/03/05 06:31:41;;;;;;;5.37;1.37;;;3.90;99.90;;;;;;5092756;28;20040;-76
2023/03/05 06:34:06;;;;;;;7.33;1.10;;;3.90;99.90;;;;;;5093865;28;20296;-75
2023/03/05 06:36:32;;;;;;;9.60;1.83;;;3.90;99.90;;;;;;5093710;28;20063;-74
2023/03/05 06:38:58;;;;;;;8.27;1.30;;;3.80;99.90;;;;;;5094172;28;20079;-75
2023/03/05 06:41:27;;;;;;;6.38;1.45;;;3.80;99.90;;;;;;5092388;28;20500;-75
2023/03/05 06:43:53;;;;;;;3.92;0.98;;;3.80;99.90;;;;;;5093831;28;20044;-74
2023/03/05 06:46:21;;;;;;;8.35;1.55;;;3.80;99.90;;;;;;5093069;28;20048;-74
2023/03/05 06:48:47;;;;;;;6.22;1.27;;;3.80;99.90;;;;;;5093799;28;20108;-75
2023/03/05 06:51:16;;;;;;;6.15;1.73;;;3.80;99.90;;;;;;5093676;28;20054;-74
2023/03/05 06:53:43;;;;;;;9.35;1.33;;;3.80;99.90;;;;;;5092700;28;20059;-74
2023/03/05 06:56:10;;;;;;;8.57;2.10;;;3.80;99.90;;;;;;5093816;28;20036;-74
2023/03/05 06:58:35;;;;;;;6.22;1.20;;;3.80;99.90;;;;;;5094083;28;20144;-75
2023/03/05 07:01:04;;;;;;;6.80;1.60;;;3.80;99.90;;;;;;5093590;28;20044;-76
2023/03/05 07:03:29;;;;;;;7.78;1.40;;;3.90;99.90;;;;;;5093569;28;20051;-75
2023/03/05 07:05:55;;;;;;;6.77;1.30;;;3.90;99.90;;;;;;5094085;28;20044;-75
2023/03/05 07:08:21;;;;;;;8.77;1.33;;;3.90;99.90;;;;;;5092265;28;20055;-75
2023/03/05 07:10:46;;;;;;;12.03;1.73;;;3.90;99.90;;;;;;5092286;28;20084;-75
2023/03/05 07:13:12;;;;;;;7.83;1.40;;;4.00;99.90;;;;;;5092406;28;20044;-75
2023/03/05 07:15:40;;;;;;;7.17;1.30;;;4.00;99.90;;;;;;5093356;28;20127;-74
2023/03/05 07:18:06;;;;;;;5.80;1.27;;;4.10;99.90;;;;;;5093419;28;20050;-75
2023/03/05 07:20:35;;;;;;;11.32;1.90;;;4.20;99.90;;;;;;5093998;28;20044;-75
2023/03/05 07:23:01;;;;;;;7.72;2.03;;;4.20;99.90;;;;;;5094132;28;20088;-74
2023/03/05 07:25:27;;;;;;;5.90;1.75;;;4.20;99.90;;;;;;5096630;28;20361;-74
2023/03/05 07:27:53;;;;;;;7.00;1.60;;;4.20;99.90;;;;;;5097478;28;20503;-75
2023/03/05 07:30:19;;;;;;;5.27;1.40;;;4.20;99.90;;;;;;5097455;28;20055;-75
2023/03/05 07:32:45;;;;;;;11.50;2.13;;;4.30;99.90;;;;;;5097650;28;20487;-75
2023/03/05 07:35:11;;;;;;;6.50;1.43;;;4.30;99.90;;;;;;5097488;28;20146;-75
2023/03/05 07:37:37;;;;;;;8.90;1.77;;;4.40;99.90;;;;;;5097542;28;20456;-75
2023/03/05 07:40:03;;;;;;;8.25;1.40;;;4.40;99.90;;;;;;5097327;28;20044;-75
2023/03/05 07:42:29;;;;;;;7.28;1.67;;;4.40;99.90;;;;;;5097310;28;20052;-75
2023/03/05 07:44:55;;;;;;;8.65;1.85;;;4.50;99.90;;;;;;5097248;28;20048;-75
2023/03/05 07:47:22;;;;;;;8.10;1.70;;;4.50;99.90;;;;;;5097790;28;20052;-75
2023/03/05 07:49:48;;;;;;;10.40;1.65;;;4.50;99.90;;;;;;5097093;28;20278;-74
2023/03/05 07:52:14;;;;;;;7.55;1.48;;;4.60;99.90;;;;;;5096997;28;20092;-74
2023/03/05 07:54:41;;;;;;;12.73;1.88;;;4.70;99.90;;;;;;5079725;28;20383;-75
2023/03/05 07:57:07;;;;;;;8.30;1.50;;;4.80;99.90;;;;;;5097762;28;20048;-81
2023/03/05 07:59:34;;;;;;;9.68;1.40;;;4.90;99.90;;;;;;5096691;28;20472;-82
2023/03/05 08:01:59;;;;;;;8.63;1.60;;;5.00;99.90;;;;;;5096587;28;20044;-76
2023/03/05 08:04:25;;;;;;;8.90;1.77;;;5.00;99.90;;;;;;5096853;28;20157;-75
2023/03/05 08:06:51;;;;;;;11.13;1.97;;;5.20;99.90;;;;;;5095691;28;20052;-75
2023/03/05 08:09:17;;;;;;;10.52;2.00;;;5.20;99.90;;;;;;5096756;28;20048;-76
2023/03/05 08:11:43;;;;;;;13.47;1.83;;;5.30;99.90;;;;;;5096694;28;20067;-76
2023/03/05 08:14:10;;;;;;;7.73;1.70;;;5.40;99.90;;;;;;5097114;28;20091;-76
2023/03/05 08:16:37;;;;;;;10.45;2.00;;;5.40;99.90;;;;;;5095182;28;20048;-78
2023/03/05 08:19:03;;;;;;;11.35;1.85;;;5.50;99.90;;;;;;5097100;28;20051;-76
2023/03/05 08:21:35;;;;;;;11.83;1.87;;;5.60;99.90;;;;;;5095546;28;20200;-77
2023/03/05 08:24:07;;;;;;;8.98;1.75;;;5.60;99.90;;;;;;5096480;28;20047;-77
2023/03/05 08:26:36;;;;;;;9.75;2.25;;;5.70;99.90;;;;;;5096400;28;20551;-73
2023/03/05 08:29:02;;;;;;;11.55;1.60;;;5.70;99.90;;;;;;5096387;28;20071;-74
2023/03/05 08:31:29;;;;;;;11.63;1.90;;;5.80;99.90;;;;;;5096398;28;20480;-74
2023/03/05 08:33:56;;;;;;;10.15;1.23;;;5.80;99.90;;;;;;5096963;28;20761;-76
2023/03/05 08:36:22;;;;;;;10.75;1.95;;;5.90;99.90;;;;;;5060465;28;20056;-75
2023/03/05 08:38:47;;;;;;;12.03;2.13;;;5.90;99.90;;;;;;5096766;28;20144;-76
2023/03/05 08:41:15;;;;;;;12.17;1.57;;;6.00;99.90;;;;;;5096169;28;20065;-76
2023/03/05 08:43:41;;;;;;;9.93;1.65;;;6.00;99.90;;;;;;5095354;28;20044;-75
2023/03/05 08:46:09;;;;;;;11.00;1.63;;;6.00;99.90;;;;;;5096023;28;20044;-76
2023/03/05 08:48:34;;;;;;;8.23;1.50;;;6.10;99.90;;;;;;5096787;28;20070;-75
2023/03/05 08:51:26;;;;;;;9.07;1.87;;;6.10;99.90;;;;;;5095938;28;20480;-76
2023/03/05 08:53:54;;;;;;;9.48;1.83;;;6.10;99.90;;;;;;5092185;28;20095;-76
2023/03/05 08:56:20;;;;;;;8.63;1.58;;;6.10;99.90;;;;;;5096530;28;20083;-76
2023/03/05 08:58:47;;;;;;;9.33;2.17;;;6.20;99.90;;;;;;5095791;28;20495;-76
2023/03/05 09:01:13;;;;;;;6.10;1.60;;;6.20;99.90;;;;;;5095762;28;20126;-76
2023/03/05 09:03:39;;;;;;;10.25;2.00;;;6.20;99.90;;;;;;5095760;28;20494;-77
2023/03/05 09:06:07;;;;;;;9.43;1.77;;;6.20;99.90;;;;;;5095746;28;20036;-75
2023/03/05 09:08:34;;;;;;;13.88;2.33;;;6.20;99.90;;;;;;5095662;28;20048;-76
2023/03/05 09:11:05;;;;;;;8.82;1.30;;;6.20;99.90;;;;;;5095714;28;20079;-76
2023/03/05 09:13:31;;;;;;;12.13;2.03;;;6.20;99.90;;;;;;5095558;28;20126;-75
2023/03/05 09:16:00;;;;;;;8.60;1.60;;;6.30;99.90;;;;;;5095415;28;20048;-76
2023/03/05 09:18:26;;;;;;;9.70;1.90;;;6.30;99.90;;;;;;5095481;28;20048;-79
2023/03/05 09:20:53;;;;;;;11.82;1.80;;;6.30;99.90;;;;;;5095383;28;20177;-76
2023/03/05 09:23:19;;;;;;;6.97;1.42;;;6.30;99.90;;;;;;5095377;28;20047;-76
2023/03/05 09:25:45;;;;;;;9.40;1.50;;;6.30;99.90;;;;;;5095302;28;20430;-76
2023/03/05 09:28:11;;;;;;;11.07;1.83;;;6.30;99.90;;;;;;5095223;28;20056;-75
2023/03/05 09:30:37;;;;;;;7.17;1.80;;;6.30;99.90;;;;;;5097070;28;20044;-73
2023/03/05 09:33:03;;;;;;;9.98;1.50;;;6.40;99.90;;;;;;5095187;28;20043;-73
2023/03/05 09:35:30;;;;;;;9.73;1.67;;;6.60;99.90;;;;;;5095119;28;20036;-74
2023/03/05 09:37:55;;;;;;;10.73;1.58;;;6.70;99.90;;;;;;5095415;28;20047;-73
2023/03/05 09:40:22;;;;;;;9.10;1.50;;;6.70;99.90;;;;;;5093831;28;20101;-75
2023/03/05 09:43:17;;;;;;;8.80;1.45;;;6.80;99.90;;;;;;5094973;28;20052;-74
2023/03/05 09:46:24;;;;;;;5.85;1.30;;;6.80;99.90;;;;;;5076993;28;20044;-74
2023/03/05 09:49:06;;;;;;;8.52;1.20;;;6.90;99.90;;;;;;5079919;28;20079;-75
2023/03/05 09:51:36;;;;;;;8.88;1.50;;;6.90;99.90;;;;;;5093862;28;20128;-74
2023/03/05 09:54:17;;;;;;;9.23;1.80;;;6.90;99.90;;;;;;5095554;28;20055;-73
2023/03/05 09:56:50;;;;;;;6.32;1.80;;;6.80;99.90;;;;;;5093186;28;20507;-73
2023/03/05 09:59:27;;;;;;;7.43;1.65;;;6.70;99.90;;;;;;5094611;28;20052;-75
2023/03/05 10:01:58;;;;;;;8.07;1.92;;;6.70;99.90;;;;;;5094003;28;20156;-74
2023/03/05 10:04:47;;;;;;;8.23;1.35;;;6.70;99.90;;;;;;5094613;28;20110;-74
2023/03/05 10:07:32;;;;;;;13.15;2.00;;;6.60;99.90;;;;;;5094530;28;20045;-72
2023/03/05 10:10:04;;;;;;;5.53;1.15;;;6.60;99.90;;;;;;5095063;28;20135;-73
2023/03/05 10:12:49;;;;;;;7.60;1.25;;;6.60;99.90;;;;;;5094434;28;20040;-75
2023/03/05 10:15:18;;;;;;;8.43;1.60;;;6.80;99.90;;;;;;5094004;28;20044;-75
2023/03/05 10:18:32;;;;;;;8.10;1.27;;;6.80;99.90;;;;;;5094146;28;20052;-77
2023/03/05 10:20:59;;;;;;;9.35;1.20;;;6.90;99.90;;;;;;5021770;28;20057;-74
2023/03/05 10:23:49;;;;;;;5.10;1.08;;;7.00;99.90;;;;;;5094457;28;20044;-74
2023/03/05 10:26:43;;;;;;;7.78;1.52;;;7.10;99.90;;;;;;5093489;28;20044;-73
2023/03/05 10:29:38;;;;;;;6.32;1.50;;;7.10;99.90;;;;;;5094205;28;20493;-74
2023/03/05 10:32:31;;;;;;;7.30;1.35;;;7.00;99.90;;;;;;5094718;28;20403;-70
2023/03/05 10:35:12;;;;;;;4.03;1.20;;;7.00;99.90;;;;;;5093989;28;20044;-73
2023/03/05 10:37:53;;;;;;;6.85;1.38;;;6.90;99.90;;;;;;5093798;28;20131;-74
2023/03/05 10:40:29;;;;;;;5.05;1.20;;;6.90;99.90;;;;;;5094516;28;20365;-75
2023/03/05 10:43:06;;;;;;;4.88;1.55;;;7.00;99.90;;;;;;5093998;28;20059;-74
2023/03/05 10:45:44;;;;;;;5.45;1.10;;;7.00;99.90;;;;;;5094384;28;20036;-77
2023/03/05 10:48:47;;;;;;;4.30;1.08;;;7.00;99.90;;;;;;5093890;28;20048;-75
2023/03/05 10:51:19;;;;;;;4.45;0.95;;;7.00;99.90;;;;;;5093671;28;20051;-76
2023/03/05 10:53:55;;;;;;;4.95;0.93;;;7.00;99.90;;;;;;5094034;28;20569;-76
2023/03/05 10:56:25;;;;;;;4.78;0.85;;;7.10;99.90;;;;;;5075343;28;20044;-76
2023/03/05 10:58:51;;;;;;;5.18;1.10;;;7.10;99.90;;;;;;5092270;28;20040;-75
2023/03/05 11:01:20;;;;;;;6.65;1.70;;;7.20;99.90;;;;;;5093633;28;20054;-76
2023/03/05 11:03:52;;;;;;;9.25;1.92;;;7.30;99.90;;;;;;5093550;28;20040;-77
2023/03/05 11:06:50;;;;;;;9.50;2.05;;;7.30;99.90;;;;;;5094661;28;20047;-77
2023/03/05 11:09:28;;;;;;;9.95;1.40;;;7.20;99.90;;;;;;5048749;28;20576;-73
2023/03/05 11:12:03;;;;;;;9.40;1.30;;;7.10;99.90;;;;;;5093257;28;20113;-78
2023/03/05 11:14:32;;;;;;;5.25;1.13;;;7.00;99.90;;;;;;5093032;28;20484;-75
2023/03/05 11:16:59;;;;;;;6.18;1.13;;;6.90;99.90;;;;;;5093421;28;20047;-76
2023/03/05 11:19:31;;;;;;;12.10;2.00;;;6.90;99.90;;;;;;5093358;28;20083;-78
2023/03/05 11:22:06;;;;;;;10.77;1.50;;;6.80;99.90;;;;;;5092198;28;20100;-73
2023/03/05 11:24:32;;;;;;;7.55;1.30;;;6.80;99.90;;;;;;5093379;28;20048;-74
2023/03/05 11:26:58;;;;;;;6.25;1.73;;;6.70;99.90;;;;;;5093406;28;20129;-72
2023/03/05 11:29:27;;;;;;;7.53;1.43;;;6.80;99.90;;;;;;5093313;28;20052;-74
2023/03/05 11:31:53;;;;;;;5.03;1.20;;;6.90;99.90;;;;;;5093381;28;20044;-72
2023/03/05 11:34:19;;;;;;;8.80;1.27;;;7.00;99.90;;;;;;5093655;28;20380;-77
2023/03/05 11:36:54;;;;;;;6.60;1.10;;;7.10;99.90;;;;;;5092729;28;20063;-79
2023/03/05 11:39:22;;;;;;;5.93;1.30;;;7.20;99.90;;;;;;5075280;28;20048;-75
2023/03/05 11:41:55;;;;;;;7.43;1.50;;;7.20;99.90;;;;;;5092240;28;20079;-75
2023/03/05 11:44:35;;;;;;;6.95;1.27;;;7.20;99.90;;;;;;5093501;28;20109;-77
2023/03/05 11:47:03;;;;;;;5.35;1.63;;;7.20;99.90;;;;;;5092007;28;20101;-73
2023/03/05 11:49:30;;;;;;;7.22;1.35;;;7.30;99.90;;;;;;5092858;28;20484;-73
2023/03/05 11:52:37;;;;;;;6.30;1.73;;;7.30;99.90;;;;;;5093138;28;20056;-73
2023/03/05 11:55:03;;;;;;;4.00;1.13;;;7.40;99.90;;;;;;5010875;28;20053;-72
2023/03/05 11:57:56;;;;;;;5.13;1.00;;;7.50;99.90;;;;;;5080394;28;20290;-76
2023/03/05 12:00:27;;;;;;;6.70;1.30;;;7.60;99.90;;;;;;5092959;28;20553;-73
2023/03/05 12:02:56;;;;;;;5.70;1.27;;;7.60;99.90;;;;;;5092992;28;20274;-73
2023/03/05 12:05:22;;;;;;;5.10;1.10;;;7.70;99.90;;;;;;5092826;28;20277;-73
2023/03/05 12:07:54;;;;;;;5.47;1.10;;;7.70;99.90;;;;;;5091971;28;20298;-72
2023/03/05 12:10:23;;;;;;;8.50;1.47;;;7.60;99.90;;;;;;5092978;28;20282;-76
2023/03/05 12:12:51;;;;;;;8.37;1.43;;;7.60;99.90;;;;;;5095521;28;20321;-79
2023/03/05 12:15:17;;;;;;;8.17;1.60;;;7.50;99.90;;;;;;5095570;28;20306;-75
2023/03/05 12:18:07;;;;;;;5.40;1.10;;;7.50;99.90;;;;;;5095185;28;20286;-77
2023/03/05 12:20:54;;;;;;;11.63;2.13;;;7.50;99.90;;;;;;5096290;28;20044;-76
2023/03/05 12:23:21;;;;;;;6.17;1.17;;;7.60;99.90;;;;;;5077516;28;20290;-75
2023/03/05 12:25:51;;;;;;;7.70;1.80;;;7.70;99.90;;;;;;5094909;28;20329;-79
2023/03/05 12:28:40;;;;;;;6.07;1.23;;;7.80;99.90;;;;;;5095155;28;20282;-80
2023/03/05 12:31:28;;;;;;;6.40;1.07;;;7.80;99.90;;;;;;5095555;28;20282;-77
2023/03/05 12:33:53;;;;;;;4.90;1.37;;;7.70;99.90;;;;;;5094657;28;20278;-76
2023/03/05 12:36:19;;;;;;;7.20;1.40;;;7.70;99.90;;;;;;5094430;28;20314;-75
2023/03/05 12:38:53;;;;;;;8.70;1.90;;;7.60;99.90;;;;;;5093519;28;20048;-75
2023/03/05 12:41:22;;;;;;;7.10;1.63;;;7.60;99.90;;;;;;5095264;28;20062;-74
2023/03/05 12:44:05;;;;;;;6.43;1.03;;;7.60;99.90;;;;;;5095074;28;20325;-76
2023/03/05 12:46:37;;;;;;;5.43;1.13;;;7.60;99.90;;;;;;5095071;28;20293;-75
2023/03/05 12:49:26;;;;;;;4.27;0.97;;;7.50;99.90;;;;;;5095314;28;20282;-77
2023/03/05 12:51:58;;;;;;;5.13;1.30;;;7.50;99.90;;;;;;5095329;28;20278;-76
2023/03/05 12:54:38;;;;;;;4.93;1.10;;;7.60;99.90;;;;;;5092914;28;20318;-78
2023/03/05 12:57:23;;;;;;;5.90;1.17;;;7.50;99.90;;;;;;5093314;28;20290;-77
2023/03/05 13:00:09;;;;;;;7.35;1.10;;;7.50;99.90;;;;;;5094622;28;20274;-76
2023/03/05 13:02:41;;;;;;;6.60;1.20;;;7.40;99.90;;;;;;5093918;28;20051;-77
2023/03/05 13:05:22;;;;;;;6.13;1.40;;;7.50;99.90;;;;;;5092260;28;20277;-78